Share

Edwards, MS (39066)

John Bell Williams, Raymond (KJVW) Elev 246 ft | 32.30 °N, 90.41 °W | Change Station
Active Advisory: Flood Warning

Current weather conditions updated 20 minutes ago

Haze
Haze
54 °F
Feels Like 54 °F
N
0
Wind Variable Wind from North
Sunrise 6:27 AM
Sunset 7:35 PM
Moon Waning Gibbous

Today is forecast to be Warmer than yesterday. Showers late tomorrow night.

Pressure 30.15 in
Visibility 0.8 miles
Clouds
Dew Point 48 °F
Humidity 82%
Rainfall 0.00 in
Snow Depth Not available.
UV Not available.
Pollen 8.50 out of 12
Air Quality Not available.
Flu Activity No Activity
METAR KJVW 200455Z AUTO 00000KT 3/4SM HZ VV005 12/09 A3015 RMK AO2 TSNO

More Conditions Fewer Conditions

Pressure 30.15 in
Visibility 0.8 miles
Clouds
Dew Point 48 °F
Humidity 82%
Rainfall 0.00 in
Snow Depth Not available.
UV Not available.
Pollen 8.50 out of 12
Air Quality Not available.
Flu Activity No Activity
METAR KJVW 200455Z AUTO 00000KT 3/4SM HZ VV005 12/09 A3015 RMK AO2 TSNO

More Conditions Fewer Conditions

10-Day Weather Forecast

Almanac

Astronomy

Apr. 20, 2014 Rise Set
Actual Time 6:27 AM CDT 7:35 PM CDT
Civil Twilight 6:02 AM CDT 8:00 PM CDT
Nautical Twilight 5:31 AM CDT 8:31 PM CDT
Astronomical Twilight 5:00 AM CDT 9:02 PM CDT
Moon 12:08 AM CDT 10:54 AM CDT
Length of Visible Light 13h 58m
Length of Day
13h 08m
Tomorrow will be 1m 50s longer.
Waning Gibbous, 73% of the Moon is Illuminated
Today
Waning Gibbous
Apr 22
Last Quarter
Apr 29
New
May 6
First Quarter
May 14
Full

Today's Extremes

State Highs State Lows

Community

  • Sunny day at the coast-Cape Arago Lighthouse
    Sunny day at the coast-Cape Arago Lighthouse
  • Cherry Blossoms
    Cherry Blossoms
  • White-Crowned Sparrow
    White-Crowned Sparrow
  • New Day
    New Day
  • Happy Easter!
    Happy Easter!

WunderPhotos

Upload Photos

1,703,088 photos uploaded!

WunderBlogs® & News

Nearby

Snow Depth

Station Depth Elevation
No new snow has been reported.

Coastal Water Temperatures

Place Temperature
No Stations Reporting

Earthquake Activity

City Distance Mag. Time & Date
No recent earthquake activity has been reported nearby.
Minimum magnitude displayed is 2.5.

Nearby Weather Stations

Station Location Temp. Dew Point Humidity Wind Precip. Elev Updated Type
Lake Park, Vicksburg, MS 56.5 °F 55 °F 94% SW  at  0.0 mph 0.00 in / hr 249 ft 12:15 AM CDT Normal
DANA RD 1, Vicksburg, MS 52.7 °F 52 °F 97% South  at  0.0 mph - / hr 243 ft 12:07 AM CDT Normal

Show More Stations Show Fewer Stations

What do you think?

We're not finished. Please let us know what you like, what you don't like, and what you are still missing.